ADDS METAR Data INFO
IDs: Format: Raw Decoded Include TAF

Data at: 0258 UTC 17 Jan 2018

KY49 170235Z AUTO 23009KT 10SM CLR M15/M23 A3037 RMK AO2 T11541227
KY49 170215Z AUTO 24007KT 10SM CLR M15/M23 A3039 RMK AO2 T11501227
KY49 170155Z AUTO 23007KT 10SM CLR M15/M23 A3040 RMK AO2 T11501228
KY49 170135Z AUTO 23009KT 10SM CLR M15/M22 A3040 RMK AO2 T11501224
KY49 170115Z AUTO 24007KT 10SM SCT120 M15/M23 A3042 RMK AO2 T11481232
KY49 170055Z AUTO 24006KT 10SM BKN120 M15/M24 A3043 RMK AO2 T11461236
KY49 170035Z AUTO 23008KT 10SM BKN120 M14/M24 A3043 RMK AO2 T11451237
KY49 170015Z AUTO 24007KT 10SM SCT120 M14/M23 A3045 RMK AO2 T11421231
KY49 162355Z AUTO 22006KT 10SM CLR M14/M22 A3046 RMK AO2 T11401216 11120 21186
KY49 162335Z AUTO 24007KT 10SM CLR M13/M21 A3047 RMK AO2 T11351212
KY49 162315Z AUTO 27006KT 10SM CLR M13/M21 A3048 RMK AO2 T11301215
KY49 162255Z AUTO 23005KT 10SM CLR M12/M20 A3048 RMK AO2 T11251198
KY49 162235Z AUTO 23007KT 10SM CLR M12/M19 A3048 RMK AO2 T11211194
KY49 162215Z AUTO 23008KT 10SM CLR M12/M19 A3049 RMK AO2 T11201195
KY49 162155Z AUTO 24008KT 10SM CLR M12/M19 A3049 RMK AO2 T11201191
KY49 162135Z AUTO 00000KT 10SM CLR M12/M19 A3050 RMK AO2 T11241194
KY49 162115Z AUTO 11003KT 10SM CLR M13/M20 A3051 RMK AO2 T11321200
KY49 162055Z AUTO 27005KT 10SM CLR M12/M19 A3051 RMK AO2 T11211191
KY49 162035Z AUTO 29004KT 10SM CLR M13/M19 A3052 RMK AO2 T11261192
KY49 162015Z AUTO 30006KT 10SM CLR M13/M20 A3054 RMK AO2 T11311197
KY49 161955Z AUTO 28004KT 10SM CLR M14/M20 A3055 RMK AO2 T11361200
KY49 161935Z AUTO 30004KT 10SM CLR M14/M20 A3056 RMK AO2 T11451204
KY49 161915Z AUTO 26004KT 10SM CLR M15/M21 A3056 RMK AO2 T11511207
KY49 161855Z AUTO 00000KT 10SM CLR M16/M21 A3057 RMK AO2 T11631213
KY49 161835Z AUTO 00000KT 10SM CLR M17/M21 A3057 RMK AO2 T11701215
KY49 161815Z AUTO 00000KT 10SM CLR M18/M21 A3058 RMK AO2 T11801210
KY49 161755Z AUTO 00000KT 10SM CLR M19/M21 A3060 RMK AO2 T11871212 11187 21260
KY49 161735Z AUTO 00000KT 10SM CLR M19/M22 A3061 RMK AO2 T11951220
KY49 161715Z AUTO 30003KT 10SM CLR M20/M23 A3061 RMK AO2 T12021226
KY49 161655Z AUTO 31004KT 10SM CLR M21/M24 A3062 RMK AO2 T12111236
KY49 161635Z AUTO 28003KT 10SM CLR M22/M25 A3063 RMK AO2 T12211246
KY49 161615Z AUTO 30003KT 10SM CLR M23/M26 A3064 RMK AO2 T12301256
KY49 161555Z AUTO 28004KT 10SM CLR M24/M26 A3063 RMK AO2 T12401265
KY49 161535Z AUTO 26003KT 10SM CLR M25/M27 A3063 RMK AO2 T12461271
KY49 161515Z AUTO 30004KT 10SM CLR M25/M28 A3065 RMK AO2 T12501276
KY49 161455Z AUTO 30004KT 10SM CLR M26/M28 A3065 RMK AO2 T12561281
KY49 161435Z AUTO 00000KT 10SM CLR M26/M28 A3065 RMK AO2 T12561281
KY49 161415Z AUTO 00000KT 10SM CLR M26/M28 A3065 RMK AO2 T12591285
KY49 161355Z AUTO 27003KT 10SM CLR M26/M28 A3065 RMK AO2 T12561280
KY49 161335Z AUTO 00000KT 10SM CLR M25/M28 A3065 RMK AO2 T12531277
KY49 161315Z AUTO 26003KT 10SM SCT005 M25/M27 A3066 RMK AO2 T12511275
KY49 161255Z AUTO 00000KT 10SM BKN007 M25/M27 A3066 RMK AO2 T12491272
KY49 161235Z AUTO 29003KT 10SM OVC007 M25/M27 A3066 RMK AO2 T12461271
KY49 161215Z AUTO 30005KT 10SM SCT007 M25/M27 A3066 RMK AO2 T12461270
KY49 161155Z AUTO 30005KT 10SM CLR M24/M27 A3066 RMK AO2 T12421266 11196 21242
KY49 161135Z AUTO 29005KT 10SM SCT009 M24/M26 A3066 RMK AO2 T12401263
KY49 161115Z AUTO 30006KT 10SM BKN009 M23/M26 A3067 RMK AO2 T12351260
KY49 161055Z AUTO 31006KT 10SM OVC007 M23/M25 A3067 RMK AO2 T12301253
KY49 161035Z AUTO 31006KT 10SM OVC007 M23/M25 A3067 RMK AO2 T12261250
KY49 161015Z AUTO 30007KT 10SM OVC007 M22/M24 A3067 RMK AO2 T12211243
KY49 160955Z AUTO 30006KT 10SM OVC009 M22/M24 A3067 RMK AO2 T12171240
KY49 160935Z AUTO 32005KT 10SM OVC009 M21/M24 A3067 RMK AO2 T12151237
KY49 160915Z AUTO 32007KT 10SM OVC009 M21/M23 A3066 RMK AO2 T12121235
KY49 160855Z AUTO 32008KT 10SM OVC009 M21/M23 A3067 RMK AO2 T12081230
KY49 160835Z AUTO 32008KT 10SM OVC009 M20/M22 A3067 RMK AO2 T12021225
KY49 160815Z AUTO 34006KT 10SM OVC009 M20/M22 A3067 RMK AO2 T12001221
KY49 160755Z AUTO 35007KT 10SM OVC009 M20/M22 A3066 RMK AO2 T12001220
KY49 160735Z AUTO 36007KT 10SM OVC009 M20/M22 A3065 RMK AO2 T11981218
KY49 160715Z AUTO 34007KT 10SM OVC009 M20/M22 A3065 RMK AO2 T11971216
KY49 160655Z AUTO 36008KT 10SM OVC009 M20/M22 A3066 RMK AO2 T11961216
KY49 160635Z AUTO 36003KT 7SM -SN OVC009 M20/M22 A3066 RMK AO2 T11961216
KY49 160615Z AUTO 35006KT 5SM -SN OVC009 M20/M22 A3065 RMK AO2 T11961216
KY49 160555Z AUTO 36008KT 5SM -SN OVC009 M20/M21 A3066 RMK AO2 T11961215 11196 21205 411821217
KY49 160535Z AUTO 36007KT 7SM -SN OVC009 M20/M21 A3066 RMK AO2 T11961215
KY49 160515Z AUTO 35007KT 330V040 7SM -SN OVC009 M20/M21 A3066 RMK AO2 T11961215
KY49 160455Z AUTO 36008KT 10SM OVC011 M20/M22 A3066 RMK AO2 T11971216
KY49 160435Z AUTO 36006KT 10SM OVC011 M20/M22 A3067 RMK AO2 T11981220
KY49 160415Z AUTO 36006KT 10SM OVC011 M20/M22 A3067 RMK AO2 T12001222
KY49 160355Z AUTO 01007KT 10SM OVC011 M20/M22 A3066 RMK AO2 T12001223
KY49 160335Z AUTO 36010KT 10SM OVC013 M20/M22 A3065 RMK AO2 T12001225
KY49 160315Z AUTO 35008G14KT 10SM OVC013 M20/M22 A3065 RMK AO2 T11981223
KY49 160255Z AUTO 36010KT 10SM OVC013 M20/M22 A3065 RMK AO2 T11981223
KY49 160235Z AUTO 35008KT 10SM OVC013 M20/M22 A3065 RMK AO2 T11971224
KY49 160215Z AUTO 36007KT 10SM OVC013 M20/M22 A3065 RMK AO2 T11971225
KY49 160155Z AUTO 35010KT 10SM OVC013 M20/M22 A3063 RMK AO2 T11971225
KY49 160135Z AUTO 34010KT 10SM OVC013 M20/M22 A3063 RMK AO2 T11971225
KY49 160115Z AUTO 34010G16KT 10SM OVC013 M20/M23 A3062 RMK AO2 T11991226
KY49 160055Z AUTO 35008G14KT 10SM OVC015 M20/M23 A3062 RMK AO2 T12011231
KY49 160035Z AUTO 35009G14KT 10SM OVC015 M20/M23 A3061 RMK AO2 T12021235
KY49 160015Z AUTO 34009KT 10SM OVC015 M20/M24 A3061 RMK AO2 T12051240
KY49 152355Z AUTO 34009G15KT 10SM OVC015 M21/M24 A3060 RMK AO2 T12061241 11192 21209
KY49 152335Z AUTO 34008KT 10SM BKN015 M21/M24 A3059 RMK AO2 T12071243
KY49 152315Z AUTO 33009KT 10SM CLR M21/M24 A3058 RMK AO2 T12081245
KY49 152255Z AUTO 33010KT 10SM CLR M20/M24 A3057 RMK AO2 T12051243
KY49 152235Z AUTO 33007KT 10SM BKN017 M20/M24 A3056 RMK AO2 T12021245
KY49 152215Z AUTO 33011G15KT 10SM OVC017 M20/M24 A3056 RMK AO2 T12001245
KY49 152155Z AUTO 32011KT 10SM OVC017 M20/M24 A3054 RMK AO2 T11961241
KY49 152135Z AUTO 32010G14KT 10SM OVC019 M20/M24 A3054 RMK AO2 T11961243
KY49 152115Z AUTO 33008G15KT 10SM OVC019 M20/M24 A3053 RMK AO2 T11961244
KY49 152055Z AUTO 33011KT 10SM BKN019 M19/M24 A3052 RMK AO2 T11951245
KY49 152035Z AUTO 31013G20KT 10SM SCT023 M20/M25 A3051 RMK AO2 T11961246
KY49 152015Z AUTO 34012G18KT 10SM CLR M20/M25 A3051 RMK AO2 T11961247
KY49 151955Z AUTO 32012G17KT 10SM CLR M19/M25 A3049 RMK AO2 T11951247
KY49 151935Z AUTO 33012G18KT 7SM CLR M20/M25 A3049 RMK AO2 T11981250
KY49 151915Z AUTO 34009KT 10SM SCT020 M20/M25 A3049 RMK AO2 T11991250
KY49 151855Z AUTO 32010G15KT 10SM SCT020 M20/M25 A3049 RMK AO2 T11971247
KY49 151835Z AUTO 34009G16KT 10SM BKN020 M20/M25 A3049 RMK AO2 T11981248
KY49 151815Z AUTO 32012G17KT 10SM SCT020 M20/M25 A3049 RMK AO2 T12021250
KY49 151755Z AUTO 34013G19KT 4SM HZ CLR M20/M25 A3048 RMK AO2 T12021250 11202 21217
KY49 151735Z AUTO 33014G18KT 7SM BKN019 M20/M25 A3048 RMK AO2 T12021250
KY49 151715Z AUTO 32013G17KT 10SM OVC019 M20/M25 A3048 RMK AO2 T12051250
KY49 151655Z AUTO 33011G15KT 10SM BKN019 BKN033 BKN043 M21/M25 A3048 RMK AO2 T12101253
KY49 151635Z AUTO 34012G18KT 10SM SCT019 SCT035 BKN048 M21/M25 A3048 RMK AO2 T12071250
KY49 151615Z AUTO 33012KT 10SM -SN SCT010 SCT017 SCT029 M21/M25 A3047 RMK AO2 T12091251
KY49 151555Z AUTO 33010G18KT 4SM -SN SCT010 BKN020 OVC046 M21/M25 A3046 RMK AO2 T12071246
KY49 151535Z AUTO 35009G18KT 7SM BKN019 BKN030 OVC043 M21/M25 A3045 RMK AO2 T12101247
KY49 151515Z AUTO 35012G20KT 7SM BKN019 M21/M25 A3044 RMK AO2 T12111246